This is the latest recevied weather packets stored in our database for station/object W5DRO-13. If no packets are shown the sender has not sent any weather packets the latest 10 day(s).
| Time | Temp. | Humidity | Pressure | Rain* | Wind** | Luminosity | Snow |
|---|---|---|---|---|---|---|---|
| 1777689119 | 12.22° C | 67% | 1019.6 hPa | 0 mm | - | - | - |
| 1777688816 | 12.22° C | 67% | 1019.6 hPa | 0 mm | - | - | - |
| 1777688210 | 12.22° C | 66% | 1019.5 hPa | 0 mm | - | - | - |
| 1777687604 | 12.78° C | 66% | 1019.4 hPa | 0 mm | - | - | - |
| 1777673060 | 21.11° C | 34% | 1017.5 hPa | 0 mm | - | - | - |
| 1777671236 | 21.11° C | 35% | 1017.6 hPa | 0 mm | - | - | - |
| 1777670023 | 21.67° C | 33% | 1017.8 hPa | 0 mm | - | - | - |
| 1777669720 | 21.11° C | 35% | 1017.9 hPa | 0 mm | - | - | - |
| 1777667900 | 21.67° C | 36% | 1018.1 hPa | 0 mm | - | - | - |
| 1777665476 | 22.22° C | 36% | 1018.8 hPa | 0 mm | - | - | - |
| 1777664260 | 21.67° C | 34% | 1019 hPa | 0 mm | - | - | - |
| 1777663959 | 22.22° C | 35% | 1019.1 hPa | 0 mm | - | - | - |
| 1777663656 | 21.67° C | 33% | 1019.1 hPa | 0 mm | - | - | - |
| 1777663352 | 21.11° C | 35% | 1019.3 hPa | 0 mm | - | - | - |
| 1777663050 | 21.11° C | 32% | 1019.2 hPa | 0 mm | - | - | - |
| 1777660619 | 22.22° C | 40% | 1019.8 hPa | 0 mm | - | - | - |
| 1777660316 | 22.22° C | 40% | 1019.8 hPa | 0 mm | - | - | - |
| 1777660012 | 22.22° C | 40% | 1019.8 hPa | 0 mm | - | - | - |
| 1777659709 | 22.22° C | 43% | 1020.2 hPa | 0 mm | - | - | - |
| 1777659406 | 21.11° C | 39% | 1020.3 hPa | 0 mm | - | - | - |
| 1777659103 | 21.67° C | 38% | 1020.3 hPa | 0 mm | - | - | - |
| 1777658801 | 21.67° C | 40% | 1020.3 hPa | 0 mm | - | - | - |
| 1777658497 | 21.11° C | 44% | 1020.3 hPa | 0 mm | - | - | - |
| 1777658194 | 20.56° C | 45% | 1020.3 hPa | 0 mm | - | - | - |
| 1777657891 | 20.56° C | 43% | 1020.4 hPa | 0 mm | - | - | - |
* Rain latest hour (hover to see other rain measurements)
** Current wind speed in m/s (hover to see current wind gust speed)